createdAt,value
2023-10-03T06:24:11.428Z,100.00
2023-10-03T06:31:22.723Z,100.00
2023-10-03T06:33:52.245Z,100.00
2023-10-03T06:40:24.367Z,100.00
2023-10-03T06:42:51.799Z,100.00
2023-10-03T06:45:22.487Z,100.00
2023-10-03T06:51:14.037Z,100.00
2023-10-03T06:53:42.977Z,100.00
2023-10-03T06:56:10.419Z,100.00
2023-10-03T06:58:37.881Z,100.00
2023-10-03T07:05:06.561Z,100.00
2023-10-03T07:07:37.191Z,100.00
2023-10-03T07:10:05.408Z,100.00
2023-10-03T07:12:32.830Z,100.00
2023-10-03T07:15:00.348Z,100.00
2023-10-03T07:17:27.837Z,100.00
2023-10-03T07:19:55.346Z,100.00
2023-10-03T07:22:22.819Z,100.00
2023-10-03T07:24:52.509Z,100.00
2023-10-03T07:27:21.066Z,100.00
2023-10-03T07:29:48.691Z,100.00
2023-10-03T07:32:16.377Z,100.00
2023-10-03T07:34:45.184Z,100.00
2023-10-03T07:37:13.918Z,100.00
2023-10-03T07:39:41.524Z,100.00
2023-10-03T07:42:10.432Z,100.00
2023-10-03T07:44:38.027Z,100.00
2023-10-03T07:47:05.764Z,100.00
2023-10-03T07:49:33.516Z,100.00
2023-10-03T07:52:06.262Z,100.00
2023-10-03T07:54:33.865Z,100.00
2023-10-03T07:57:09.619Z,100.00
2023-10-03T07:59:37.141Z,100.00
2023-10-03T08:02:12.183Z,100.00
2023-10-03T08:04:42.448Z,100.00
2023-10-03T08:07:12.315Z,100.00
2023-10-03T08:09:39.770Z,100.00
2023-10-03T08:12:13.611Z,100.00
2023-10-03T08:14:43.018Z,100.00
2023-10-03T08:17:13.401Z,100.00
2023-10-03T08:19:41.758Z,100.00
2023-10-03T08:22:14.364Z,100.00
2023-10-03T08:24:45.855Z,100.00
2023-10-03T08:27:22.945Z,100.00
2023-10-03T08:29:52.890Z,100.00
2023-10-03T08:32:20.882Z,100.00
2023-10-03T08:34:48.680Z,100.00
2023-10-03T08:37:23.905Z,100.00
2023-10-03T08:39:53.581Z,100.00
2023-10-03T08:42:40.827Z,100.00
2023-10-03T08:45:22.657Z,100.00
2023-10-03T08:47:55.454Z,100.00
2023-10-03T08:50:35.494Z,100.00
2023-10-03T08:53:23.343Z,100.00
2023-10-03T08:55:51.631Z,100.00
2023-10-03T08:58:26.788Z,100.00
2023-10-03T09:01:00.637Z,100.00
2023-10-03T09:03:50.852Z,100.00
2023-10-03T09:06:25.044Z,100.00
2023-10-03T09:09:10.191Z,100.00
2023-10-03T09:11:46.413Z,100.00
2023-10-03T09:14:24.090Z,100.00
2023-10-03T09:17:00.595Z,100.00
2023-10-03T09:19:47.679Z,100.00
2023-10-03T09:22:33.220Z,96.67
2023-10-03T09:25:00.856Z,93.23
2023-10-03T09:27:32.896Z,93.39
2023-10-03T09:30:10.538Z,93.33
2023-10-03T09:32:41.759Z,92.33
2023-10-03T09:35:13.310Z,89.30
2023-10-03T09:37:46.736Z,86.32
2023-10-03T09:40:20.146Z,84.50
2023-10-03T09:42:52.582Z,84.60
2023-10-03T09:45:26.437Z,83.24
2023-10-03T09:47:59.895Z,81.07
2023-10-03T09:50:29.406Z,79.26
2023-10-03T09:53:02.921Z,77.85
2023-10-03T09:55:48.087Z,74.29
2023-10-03T09:58:25.654Z,72.59
2023-10-03T10:00:57.204Z,74.10
2023-10-03T10:03:35.036Z,69.38
2023-10-03T10:06:50.364Z,68.13
2023-10-03T10:09:36.176Z,66.48
2023-10-03T10:12:20.613Z,63.34
2023-10-03T10:15:02.312Z,62.85
2023-10-03T10:17:47.324Z,65.55
2023-10-03T10:20:39.770Z,59.03
2023-10-03T10:23:11.952Z,58.09
2023-10-03T10:25:51.611Z,59.71
2023-10-03T10:28:29.170Z,56.33
2023-10-03T10:31:18.953Z,55.76
2023-10-03T10:33:49.399Z,55.24
2023-10-03T10:36:20.212Z,54.07
2023-10-03T10:38:53.618Z,53.86
2023-10-03T10:41:25.936Z,53.51
2023-10-03T10:44:18.063Z,53.37
2023-10-03T10:46:53.397Z,53.26
2023-10-03T10:49:33.040Z,52.85
2023-10-03T10:52:14.275Z,52.87
2023-10-03T10:54:44.063Z,52.87
2023-10-03T10:57:17.613Z,52.66
2023-10-03T10:59:45.210Z,54.53
2023-10-03T11:02:22.532Z,54.31
2023-10-03T11:05:02.824Z,54.95
2023-10-03T11:07:34.726Z,55.38
2023-10-03T11:10:32.144Z,55.10
2023-10-03T11:13:05.321Z,54.64
2023-10-03T11:15:33.161Z,55.21
2023-10-03T11:18:00.805Z,54.52
2023-10-03T11:20:28.965Z,53.82
2023-10-03T11:22:57.303Z,53.87
2023-10-03T11:25:26.355Z,53.46
2023-10-03T11:27:55.719Z,53.16
2023-10-03T11:30:23.704Z,53.31
2023-10-03T11:32:52.182Z,54.23
2023-10-03T11:35:23.105Z,53.37
2023-10-03T11:37:52.584Z,53.21
2023-10-03T11:40:23.586Z,52.74
2023-10-03T11:43:04.117Z,52.57
2023-10-03T11:45:34.722Z,52.12
2023-10-03T11:48:12.579Z,52.09
2023-10-03T11:50:42.049Z,51.69
2023-10-03T11:53:10.287Z,51.48
2023-10-03T11:55:39.388Z,52.01
2023-10-03T11:58:07.624Z,51.73
2023-10-03T12:00:36.664Z,52.01
2023-10-03T12:03:07.263Z,52.37
2023-10-03T12:05:35.565Z,52.28
2023-10-03T12:08:06.291Z,52.75
2023-10-03T12:10:35.765Z,52.66
2023-10-03T12:13:04.045Z,53.23
2023-10-03T12:15:32.244Z,54.81
2023-10-03T12:18:01.192Z,55.02
2023-10-03T12:20:28.950Z,57.78
2023-10-03T12:22:56.485Z,58.43
2023-10-03T12:25:25.630Z,58.64
2023-10-03T12:27:53.147Z,59.04
2023-10-03T12:30:21.027Z,60.79
2023-10-03T12:32:51.528Z,61.21
2023-10-03T12:35:19.723Z,62.08
2023-10-03T12:37:49.972Z,63.27
2023-10-03T12:40:20.307Z,64.20
2023-10-03T12:42:49.583Z,65.86
2023-10-03T12:45:22.561Z,65.92
2023-10-03T12:47:56.309Z,68.05
2023-10-03T12:50:29.054Z,68.92
2023-10-03T12:53:02.681Z,69.15
2023-10-03T12:55:34.900Z,70.49
2023-10-03T12:58:03.987Z,69.46
2023-10-03T13:00:31.504Z,70.21
2023-10-03T13:03:01.427Z,71.73
2023-10-03T13:05:29.132Z,69.90
2023-10-03T13:07:56.571Z,68.96
2023-10-03T13:10:27.918Z,72.49
2023-10-03T13:12:58.139Z,71.44
2023-10-03T13:15:25.656Z,71.17
2023-10-03T13:17:54.553Z,72.76
2023-10-03T13:20:26.299Z,73.73
2023-10-03T13:22:55.308Z,73.44
2023-10-03T13:25:23.037Z,74.78
2023-10-03T13:27:54.628Z,74.48
2023-10-03T13:30:26.813Z,77.42
2023-10-03T13:32:57.168Z,79.98
2023-10-03T13:35:25.484Z,78.22
2023-10-03T13:37:54.357Z,79.29
2023-10-03T13:40:23.231Z,81.21
2023-10-03T13:42:52.376Z,83.24
2023-10-03T13:45:21.184Z,82.94
2023-10-03T13:47:50.863Z,85.73
2023-10-03T13:50:19.373Z,85.90
2023-10-03T13:52:53.021Z,86.10
2023-10-03T13:55:24.558Z,84.69
2023-10-03T13:57:54.699Z,84.30
2023-10-03T14:00:22.460Z,84.63
2023-10-03T14:02:52.291Z,87.97
2023-10-03T14:05:20.808Z,86.65
2023-10-03T14:07:48.472Z,85.44
2023-10-03T14:10:17.556Z,89.02
2023-10-03T14:12:45.872Z,86.81
2023-10-03T14:15:21.585Z,84.34
2023-10-03T14:17:51.561Z,86.71
2023-10-03T14:20:21.266Z,86.44
2023-10-03T14:22:48.810Z,84.99
2023-10-03T14:25:16.362Z,83.58
2023-10-03T14:27:45.684Z,82.35
2023-10-03T14:30:14.450Z,81.55
2023-10-03T14:32:42.846Z,80.47
2023-10-03T14:35:13.730Z,81.53
2023-10-03T14:37:42.259Z,79.51
2023-10-03T14:40:17.582Z,77.44
2023-10-03T14:42:51.229Z,79.82
2023-10-03T14:45:20.879Z,78.28
2023-10-03T14:47:49.460Z,79.29
2023-10-03T14:50:17.250Z,79.41
2023-10-03T14:52:44.688Z,79.87
2023-10-03T14:55:12.267Z,79.06
2023-10-03T14:57:40.338Z,80.86
2023-10-03T15:00:09.386Z,80.28
2023-10-03T15:02:37.096Z,80.65
2023-10-03T15:05:07.482Z,78.72
2023-10-03T15:07:35.885Z,76.88
2023-10-03T15:10:04.373Z,76.84
2023-10-03T15:12:31.865Z,81.05
2023-10-03T15:15:00.058Z,80.64
2023-10-03T15:17:27.948Z,80.43
2023-10-03T15:19:55.639Z,82.19
2023-10-03T15:22:23.164Z,81.74
2023-10-03T15:24:50.634Z,83.04
2023-10-03T15:27:20.867Z,83.57
2023-10-03T15:29:48.547Z,86.30
2023-10-03T15:32:16.141Z,90.68
2023-10-03T15:34:43.614Z,100.00
2023-10-03T15:37:13.484Z,100.00
2023-10-03T15:39:40.994Z,100.00
2023-10-03T15:42:08.458Z,97.63
2023-10-03T15:44:35.909Z,98.36
2023-10-03T15:47:03.366Z,94.65
2023-10-03T15:49:31.109Z,91.56
2023-10-03T15:51:58.586Z,91.52
2023-10-03T15:54:26.052Z,93.79
2023-10-03T15:56:54.945Z,97.54
2023-10-03T15:59:22.993Z,97.58
2023-10-03T16:01:51.150Z,97.60
2023-10-03T16:04:21.384Z,98.53
2023-10-03T16:06:48.888Z,100.00
2023-10-03T16:09:16.516Z,100.00
2023-10-03T16:11:45.923Z,100.00
2023-10-03T16:14:16.738Z,100.00
2023-10-03T16:16:45.437Z,100.00
2023-10-03T16:19:14.366Z,100.00
2023-10-03T16:21:43.103Z,100.00
2023-10-03T16:24:12.039Z,100.00
2023-10-03T16:26:42.274Z,100.00
2023-10-03T16:29:09.908Z,100.00
2023-10-03T16:31:37.890Z,100.00
2023-10-03T16:34:06.240Z,100.00
2023-10-03T16:36:35.218Z,100.00
2023-10-03T16:39:03.058Z,100.00
2023-10-03T16:41:32.927Z,100.00
2023-10-03T16:44:03.151Z,100.00
2023-10-03T16:46:33.456Z,100.00
2023-10-03T16:49:04.321Z,100.00
2023-10-03T16:51:35.178Z,100.00
2023-10-03T16:54:04.537Z,100.00
2023-10-03T16:56:32.318Z,100.00
2023-10-03T16:58:59.858Z,100.00
2023-10-03T17:01:27.823Z,100.00
2023-10-03T17:03:58.748Z,100.00
2023-10-03T17:06:27.019Z,100.00
2023-10-03T17:08:54.634Z,100.00
2023-10-03T17:11:22.457Z,100.00
2023-10-03T17:13:49.962Z,100.00
2023-10-03T17:16:18.588Z,100.00
2023-10-03T17:18:46.573Z,100.00
2023-10-03T17:21:15.254Z,100.00
2023-10-03T17:23:42.890Z,100.00
2023-10-03T17:26:17.405Z,100.00
2023-10-03T17:28:47.658Z,100.00
2023-10-03T17:31:15.197Z,100.00
2023-10-03T17:33:43.223Z,100.00
2023-10-03T17:36:10.928Z,100.00
2023-10-03T17:38:38.417Z,100.00
2023-10-03T17:41:08.027Z,100.00
2023-10-03T17:43:35.866Z,100.00
2023-10-03T17:46:04.820Z,100.00
2023-10-03T17:48:33.135Z,100.00
2023-10-03T17:51:01.104Z,100.00
2023-10-03T17:53:28.564Z,100.00
2023-10-03T17:55:56.923Z,100.00
2023-10-03T17:58:24.358Z,100.00
2023-10-03T18:00:51.967Z,100.00
2023-10-03T18:03:22.645Z,100.00
2023-10-03T18:05:51.776Z,100.00
2023-10-03T18:08:19.224Z,100.00
2023-10-03T18:10:46.743Z,100.00
2023-10-03T18:13:14.308Z,100.00
2023-10-03T18:15:41.742Z,100.00
2023-10-03T18:18:09.464Z,100.00
2023-10-03T18:20:37.056Z,100.00
2023-10-03T18:23:04.828Z,100.00
2023-10-03T18:25:32.259Z,100.00
2023-10-03T18:28:00.816Z,100.00
2023-10-03T18:30:30.488Z,100.00
2023-10-03T18:33:01.025Z,100.00
2023-10-03T18:35:29.074Z,100.00
2023-10-03T18:37:57.347Z,100.00
2023-10-03T18:40:24.830Z,100.00
2023-10-03T18:42:52.731Z,100.00
2023-10-03T18:45:20.652Z,100.00
2023-10-03T18:47:48.251Z,100.00
2023-10-03T18:50:16.423Z,100.00
2023-10-03T18:52:43.935Z,100.00
2023-10-03T18:55:13.224Z,100.00
2023-10-03T18:57:42.053Z,100.00
2023-10-03T19:00:13.309Z,100.00
2023-10-03T19:02:41.546Z,100.00
2023-10-03T19:05:10.484Z,100.00
2023-10-03T19:07:41.139Z,100.00
2023-10-03T19:10:18.322Z,100.00
2023-10-03T19:12:45.764Z,100.00
2023-10-03T19:15:13.624Z,100.00
2023-10-03T19:17:41.364Z,100.00
2023-10-03T19:20:10.769Z,100.00
2023-10-03T19:22:39.303Z,100.00
2023-10-03T19:25:08.841Z,100.00
2023-10-03T19:27:41.934Z,100.00
2023-10-03T19:30:16.616Z,100.00
2023-10-03T19:32:45.768Z,100.00
2023-10-03T19:35:13.224Z,100.00
2023-10-03T19:37:42.600Z,100.00
2023-10-03T19:40:12.306Z,100.00
2023-10-03T19:42:39.956Z,100.00
2023-10-03T19:45:09.110Z,100.00
2023-10-03T19:47:36.650Z,100.00
2023-10-03T19:50:08.857Z,100.00
2023-10-03T19:52:39.552Z,100.00
2023-10-03T19:55:10.182Z,100.00
2023-10-03T19:57:39.565Z,100.00
2023-10-03T20:00:12.792Z,100.00
2023-10-03T20:02:41.445Z,100.00
2023-10-03T20:05:09.673Z,100.00
2023-10-03T20:07:37.174Z,100.00
2023-10-03T20:10:05.128Z,100.00
2023-10-03T20:12:34.359Z,100.00
2023-10-03T20:15:01.972Z,100.00
2023-10-03T20:17:29.548Z,100.00
2023-10-03T20:19:57.026Z,100.00
2023-10-03T20:22:24.954Z,100.00
2023-10-03T20:24:52.444Z,100.00
2023-10-03T20:27:19.958Z,100.00
2023-10-03T20:29:47.447Z,100.00
2023-10-03T20:32:14.978Z,100.00
2023-10-03T20:34:42.394Z,100.00
2023-10-03T20:37:11.754Z,100.00
2023-10-03T20:39:39.195Z,100.00
2023-10-03T20:42:06.676Z,100.00
2023-10-03T20:44:34.207Z,100.00
2023-10-03T20:47:05.749Z,100.00
2023-10-03T20:49:33.191Z,100.00
2023-10-03T20:52:00.997Z,100.00
2023-10-03T20:54:28.478Z,100.00
2023-10-03T20:56:55.983Z,100.00
2023-10-03T20:59:23.469Z,100.00
2023-10-03T21:01:52.069Z,100.00
2023-10-03T21:04:19.718Z,100.00
2023-10-03T21:06:48.254Z,100.00
2023-10-03T21:09:22.161Z,100.00
2023-10-03T21:11:50.566Z,100.00
2023-10-03T21:14:18.200Z,100.00
2023-10-03T21:16:45.656Z,100.00
2023-10-03T21:19:13.241Z,100.00
2023-10-03T21:21:40.714Z,100.00
2023-10-03T21:24:11.052Z,100.00
2023-10-03T21:26:38.562Z,100.00
2023-10-03T21:29:07.201Z,100.00
2023-10-03T21:31:36.052Z,100.00
2023-10-03T21:34:03.542Z,100.00
2023-10-03T21:36:31.058Z,100.00
2023-10-03T21:38:58.632Z,100.00
2023-10-03T21:41:26.167Z,100.00
2023-10-03T21:43:53.807Z,100.00
2023-10-03T21:46:21.650Z,100.00
2023-10-03T21:48:53.168Z,100.00
2023-10-03T21:51:24.450Z,100.00
2023-10-03T21:53:51.973Z,100.00
2023-10-03T21:56:19.441Z,100.00
2023-10-03T21:58:47.768Z,100.00
2023-10-03T22:01:17.563Z,100.00
2023-10-03T22:03:48.142Z,100.00
2023-10-03T22:06:15.683Z,100.00
2023-10-03T22:08:43.641Z,100.00
2023-10-03T22:11:11.446Z,100.00
2023-10-03T22:13:38.957Z,100.00
2023-10-03T22:16:06.571Z,100.00
2023-10-03T22:18:39.139Z,100.00
2023-10-03T22:21:08.999Z,100.00
2023-10-03T22:23:36.676Z,100.00
2023-10-03T22:26:06.713Z,100.00
2023-10-03T22:28:34.336Z,100.00
2023-10-03T22:31:02.036Z,100.00
2023-10-03T22:33:29.627Z,100.00
2023-10-03T22:36:02.856Z,100.00
2023-10-03T22:38:30.898Z,100.00
2023-10-03T22:41:05.018Z,100.00
2023-10-03T22:43:32.450Z,100.00
2023-10-03T22:46:00.429Z,100.00
2023-10-03T22:48:28.323Z,100.00
2023-10-03T22:50:55.815Z,100.00
2023-10-03T22:53:23.348Z,100.00
2023-10-03T22:55:50.804Z,100.00
2023-10-03T22:58:18.282Z,100.00
2023-10-03T23:00:46.156Z,100.00
2023-10-03T23:03:15.137Z,100.00
2023-10-03T23:05:43.235Z,100.00
2023-10-03T23:08:10.689Z,100.00
2023-10-03T23:10:38.548Z,100.00
2023-10-03T23:13:07.112Z,100.00
2023-10-03T23:15:34.868Z,100.00
2023-10-03T23:18:02.988Z,100.00
2023-10-03T23:20:30.601Z,100.00
2023-10-03T23:22:58.129Z,100.00
2023-10-03T23:25:25.663Z,100.00
2023-10-03T23:27:53.162Z,100.00
2023-10-03T23:30:20.757Z,100.00
2023-10-03T23:32:48.251Z,100.00
2023-10-03T23:35:15.773Z,100.00
2023-10-03T23:37:43.220Z,100.00
2023-10-03T23:40:17.144Z,100.00
2023-10-03T23:42:45.655Z,100.00
2023-10-03T23:45:15.616Z,100.00
2023-10-03T23:47:43.669Z,100.00
2023-10-03T23:50:20.118Z,100.00
2023-10-03T23:52:47.978Z,100.00
2023-10-03T23:55:19.537Z,100.00
2023-10-03T23:57:50.627Z,100.00
